DLH37N LFMN-EDDM
Flight info
| Callsign | DLH37N |
|---|---|
| Flight time | 1h 8m |
| Altitude | 32000 |
| Route | BASIP DCT ANAKI DCT TAGIP DCT GUNGO DCT IVKAL T102 NINUR T101 BETOS BETOS1A |
| Aircraft | A388/J-SADE2E3FGHIJ3J4J5M1RWXY/LB1D1 |
Departure
| Time | 2026-05-01 10:11 |
|---|---|
| Airport | Nice-Côte d'Azur Airport (LFMN) |
Arrival
| Time | 2026-05-01 11:19 |
|---|---|
| Airport | Munich Airport (EDDM) |
| Time | Latitude | Longitude | Altitude | Speed | Heading |
|---|---|---|---|---|---|
| 2026-05-01 08:55 | 43.66379 | 7.21099 | 27 ft | 0 kts | 350° |
| 2026-05-01 09:49 | 43.66363 | 7.21102 | 25 ft | 2 kts | 350° |
| 2026-05-01 09:49 | 43.66347 | 7.21107 | 25 ft | 2 kts | 345° |
| 2026-05-01 09:49 | 43.66334 | 7.21122 | 24 ft | 2 kts | 309° |
| 2026-05-01 09:50 | 43.66329 | 7.21143 | 26 ft | 2 kts | 282° |
| 2026-05-01 09:50 | 43.66330 | 7.21166 | 26 ft | 2 kts | 264° |
| 2026-05-01 09:50 | 43.66332 | 7.21187 | 24 ft | 1 kts | 261° |
| 2026-05-01 09:50 | 43.66332 | 7.21189 | 24 ft | 0 kts | 261° |
| 2026-05-01 09:56 | 43.66332 | 7.21187 | 27 ft | 2 kts | 261° |
| 2026-05-01 09:56 | 43.66325 | 7.21126 | 27 ft | 11 kts | 261° |
| 2026-05-01 09:57 | 43.66300 | 7.21023 | 27 ft | 10 kts | 209° |
| 2026-05-01 09:57 | 43.66229 | 7.21008 | 27 ft | 10 kts | 175° |
| 2026-05-01 09:57 | 43.66151 | 7.21027 | 27 ft | 14 kts | 169° |
| 2026-05-01 09:57 | 43.66054 | 7.21018 | 27 ft | 15 kts | 211° |
| 2026-05-01 09:58 | 43.65969 | 7.20912 | 27 ft | 19 kts | 226° |
| 2026-05-01 09:58 | 43.65890 | 7.20808 | 27 ft | 16 kts | 222° |
| 2026-05-01 09:58 | 43.65821 | 7.20720 | 27 ft | 7 kts | 226° |
| 2026-05-01 09:58 | 43.65804 | 7.20695 | 27 ft | 2 kts | 226° |
| 2026-05-01 09:59 | 43.65784 | 7.20666 | 27 ft | 5 kts | 225° |
| 2026-05-01 09:59 | 43.65746 | 7.20614 | 27 ft | 10 kts | 225° |
| 2026-05-01 09:59 | 43.65689 | 7.20536 | 27 ft | 13 kts | 224° |
| 2026-05-01 09:59 | 43.65630 | 7.20457 | 27 ft | 14 kts | 224° |
| 2026-05-01 10:00 | 43.65558 | 7.20359 | 27 ft | 12 kts | 224° |
| 2026-05-01 10:00 | 43.65502 | 7.20282 | 27 ft | 11 kts | 225° |
| 2026-05-01 10:00 | 43.65452 | 7.20211 | 27 ft | 11 kts | 224° |
| 2026-05-01 10:00 | 43.65383 | 7.20179 | 27 ft | 10 kts | 169° |
| 2026-05-01 10:01 | 43.65322 | 7.20228 | 27 ft | 11 kts | 137° |
| 2026-05-01 10:01 | 43.65302 | 7.20255 | 27 ft | 1 kts | 134° |
| 2026-05-01 10:01 | 43.65294 | 7.20267 | 27 ft | 0 kts | 134° |
| 2026-05-01 10:02 | 43.65279 | 7.20289 | 27 ft | 5 kts | 134° |
| 2026-05-01 10:02 | 43.65248 | 7.20333 | 27 ft | 8 kts | 134° |
| 2026-05-01 10:02 | 43.65206 | 7.20393 | 27 ft | 10 kts | 134° |
| 2026-05-01 10:02 | 43.65156 | 7.20465 | 27 ft | 11 kts | 138° |
| 2026-05-01 10:03 | 43.65088 | 7.20513 | 27 ft | 12 kts | 173° |
| 2026-05-01 10:03 | 43.65007 | 7.20481 | 27 ft | 14 kts | 217° |
| 2026-05-01 10:03 | 43.64923 | 7.20369 | 27 ft | 18 kts | 226° |
| 2026-05-01 10:03 | 43.64842 | 7.20256 | 27 ft | 14 kts | 224° |
| 2026-05-01 10:04 | 43.64812 | 7.20217 | 27 ft | 2 kts | 220° |
| 2026-05-01 10:04 | 43.64799 | 7.20204 | 27 ft | 2 kts | 207° |
| 2026-05-01 10:04 | 43.64776 | 7.20191 | 27 ft | 6 kts | 200° |
| 2026-05-01 10:04 | 43.64769 | 7.20188 | 27 ft | 0 kts | 188° |
| 2026-05-01 10:07 | 43.64752 | 7.20185 | 27 ft | 5 kts | 175° |
| 2026-05-01 10:07 | 43.64705 | 7.20227 | 27 ft | 10 kts | 123° |
| 2026-05-01 10:07 | 43.64708 | 7.20298 | 27 ft | 8 kts | 55° |
| 2026-05-01 10:07 | 43.64759 | 7.20372 | 27 ft | 11 kts | 43° |
| 2026-05-01 10:08 | 43.64792 | 7.20415 | 27 ft | 0 kts | 45° |
| 2026-05-01 10:10 | 43.64892 | 7.20555 | 27 ft | 64 kts | 45° |
| 2026-05-01 10:10 | 43.66096 | 7.22263 | 464 ft | 145 kts | 62° |
| 2026-05-01 10:11 | 43.66222 | 7.23565 | 1118 ft | 140 kts | 110° |
| 2026-05-01 10:11 | 43.65704 | 7.24699 | 1756 ft | 142 kts | 126° |
| 2026-05-01 10:11 | 43.65028 | 7.25800 | 2139 ft | 160 kts | 128° |
| 2026-05-01 10:11 | 43.64244 | 7.27022 | 2466 ft | 178 kts | 129° |
| 2026-05-01 10:12 | 43.63404 | 7.28373 | 2612 ft | 192 kts | 123° |
| 2026-05-01 10:12 | 43.62974 | 7.29458 | 2670 ft | 198 kts | 107° |
| 2026-05-01 10:12 | 43.63479 | 7.33921 | 3520 ft | 212 kts | 71° |
| 2026-05-01 10:13 | 43.63972 | 7.35767 | 4732 ft | 204 kts | 69° |
| 2026-05-01 10:13 | 43.64482 | 7.37639 | 5735 ft | 209 kts | 68° |
| 2026-05-01 10:13 | 43.64991 | 7.39522 | 6687 ft | 214 kts | 68° |
| 2026-05-01 10:14 | 43.66046 | 7.43484 | 8501 ft | 225 kts | 68° |
| 2026-05-01 10:14 | 43.66595 | 7.45569 | 9424 ft | 231 kts | 68° |
| 2026-05-01 10:14 | 43.67151 | 7.47689 | 10323 ft | 238 kts | 68° |
| 2026-05-01 10:14 | 43.67710 | 7.49818 | 11184 ft | 242 kts | 68° |
| 2026-05-01 10:15 | 43.68313 | 7.52089 | 11750 ft | 261 kts | 68° |
| 2026-05-01 10:15 | 43.68968 | 7.54538 | 12133 ft | 283 kts | 68° |
| 2026-05-01 10:15 | 43.69673 | 7.57182 | 12527 ft | 300 kts | 68° |
| 2026-05-01 10:15 | 43.70411 | 7.59959 | 12792 ft | 315 kts | 68° |
| 2026-05-01 10:16 | 43.71192 | 7.62903 | 12990 ft | 337 kts | 68° |
| 2026-05-01 10:16 | 43.72005 | 7.65976 | 13703 ft | 343 kts | 68° |
| 2026-05-01 10:16 | 43.74021 | 7.71979 | 15301 ft | 345 kts | 56° |
| 2026-05-01 10:17 | 43.75477 | 7.74630 | 16049 ft | 348 kts | 47° |
| 2026-05-01 10:17 | 43.78737 | 7.79661 | 17477 ft | 354 kts | 48° |
| 2026-05-01 10:17 | 43.80358 | 7.82204 | 18167 ft | 358 kts | 48° |
| 2026-05-01 10:18 | 43.83682 | 7.87432 | 19420 ft | 365 kts | 48° |
| 2026-05-01 10:18 | 43.85367 | 7.90083 | 20004 ft | 368 kts | 48° |
| 2026-05-01 10:18 | 43.87069 | 7.92763 | 20578 ft | 372 kts | 47° |
| 2026-05-01 10:19 | 43.88757 | 7.95511 | 21142 ft | 376 kts | 51° |
| 2026-05-01 10:19 | 43.90220 | 7.98536 | 21712 ft | 380 kts | 58° |
| 2026-05-01 10:19 | 43.91513 | 8.01757 | 22259 ft | 384 kts | 59° |
| 2026-05-01 10:20 | 43.93710 | 8.07147 | 23178 ft | 389 kts | 58° |
| 2026-05-01 10:20 | 43.95057 | 8.10438 | 23718 ft | 393 kts | 58° |
| 2026-05-01 10:20 | 43.96413 | 8.13754 | 24215 ft | 397 kts | 58° |
| 2026-05-01 10:20 | 43.97781 | 8.17109 | 24683 ft | 400 kts | 58° |
| 2026-05-01 10:21 | 43.99604 | 8.21591 | 25276 ft | 405 kts | 58° |
| 2026-05-01 10:21 | 44.01924 | 8.27308 | 26060 ft | 411 kts | 58° |
| 2026-05-01 10:21 | 44.03332 | 8.30784 | 26564 ft | 414 kts | 58° |
| 2026-05-01 10:22 | 44.06184 | 8.37839 | 27587 ft | 423 kts | 58° |
| 2026-05-01 10:22 | 44.08595 | 8.43813 | 28514 ft | 429 kts | 58° |
| 2026-05-01 10:23 | 44.09024 | 8.44877 | 28669 ft | 430 kts | 58° |
| 2026-05-01 10:23 | 44.11983 | 8.52230 | 29752 ft | 439 kts | 58° |
| 2026-05-01 10:23 | 44.13476 | 8.55949 | 30303 ft | 444 kts | 58° |
| 2026-05-01 10:24 | 44.16513 | 8.63526 | 31281 ft | 452 kts | 58° |
| 2026-05-01 10:24 | 44.19844 | 8.70978 | 32246 ft | 455 kts | 49° |
| 2026-05-01 10:25 | 44.24418 | 8.77278 | 32337 ft | 475 kts | 35° |
| 2026-05-01 10:25 | 44.29676 | 8.82968 | 32325 ft | 479 kts | 36° |
| 2026-05-01 10:26 | 44.34912 | 8.88718 | 32322 ft | 478 kts | 36° |
| 2026-05-01 10:27 | 44.45362 | 9.00215 | 32325 ft | 478 kts | 35° |
| 2026-05-01 10:28 | 44.53151 | 9.08812 | 32339 ft | 477 kts | 36° |
| 2026-05-01 10:28 | 44.60954 | 9.17457 | 32352 ft | 475 kts | 36° |
| 2026-05-01 10:29 | 44.68731 | 9.26102 | 32361 ft | 475 kts | 36° |
| 2026-05-01 10:30 | 44.79038 | 9.37609 | 32372 ft | 473 kts | 36° |
| 2026-05-01 10:31 | 44.89321 | 9.49142 | 32377 ft | 472 kts | 36° |
| 2026-05-01 10:32 | 44.97007 | 9.57798 | 32375 ft | 471 kts | 36° |
| 2026-05-01 10:33 | 45.07225 | 9.69352 | 32363 ft | 470 kts | 37° |
| 2026-05-01 10:34 | 45.14823 | 9.77981 | 32377 ft | 468 kts | 37° |
| 2026-05-01 10:34 | 45.19903 | 9.83766 | 32377 ft | 468 kts | 37° |
| 2026-05-01 10:35 | 45.27104 | 9.91991 | 32376 ft | 467 kts | 37° |
| 2026-05-01 10:35 | 45.32161 | 9.97783 | 32374 ft | 467 kts | 37° |
| 2026-05-01 10:36 | 45.39736 | 10.06484 | 32376 ft | 466 kts | 37° |
| 2026-05-01 10:37 | 45.44777 | 10.12291 | 32376 ft | 466 kts | 37° |
| 2026-05-01 10:37 | 45.52318 | 10.21006 | 32376 ft | 464 kts | 37° |
| 2026-05-01 10:38 | 45.57331 | 10.26817 | 32368 ft | 464 kts | 37° |
| 2026-05-01 10:38 | 45.62305 | 10.32596 | 32385 ft | 464 kts | 38° |
| 2026-05-01 10:39 | 45.67304 | 10.38417 | 32377 ft | 463 kts | 38° |
| 2026-05-01 10:39 | 45.72292 | 10.44240 | 32375 ft | 462 kts | 38° |
| 2026-05-01 10:40 | 45.77276 | 10.50071 | 32365 ft | 462 kts | 38° |
| 2026-05-01 10:40 | 45.82245 | 10.55898 | 32364 ft | 461 kts | 38° |
| 2026-05-01 10:41 | 45.87211 | 10.61737 | 32357 ft | 461 kts | 38° |
| 2026-05-01 10:42 | 45.94841 | 10.70097 | 32358 ft | 460 kts | 29° |
| 2026-05-01 10:42 | 46.00480 | 10.74425 | 32357 ft | 459 kts | 27° |
| 2026-05-01 10:43 | 46.06073 | 10.78740 | 32353 ft | 458 kts | 27° |
| 2026-05-01 10:43 | 46.11724 | 10.83106 | 32356 ft | 458 kts | 27° |
| 2026-05-01 10:44 | 46.17343 | 10.87446 | 32365 ft | 458 kts | 27° |
| 2026-05-01 10:44 | 46.22929 | 10.91770 | 32368 ft | 457 kts | 27° |
| 2026-05-01 10:45 | 46.28480 | 10.96079 | 32371 ft | 457 kts | 28° |
| 2026-05-01 10:45 | 46.34084 | 11.00438 | 32379 ft | 456 kts | 28° |
| 2026-05-01 10:46 | 46.39787 | 11.04456 | 32374 ft | 456 kts | 19° |
| 2026-05-01 10:46 | 46.45971 | 11.06076 | 32378 ft | 458 kts | 3° |
| 2026-05-01 10:46 | 46.49211 | 11.05931 | 32246 ft | 460 kts | 359° |
| 2026-05-01 10:47 | 46.52350 | 11.05695 | 31835 ft | 455 kts | 359° |
| 2026-05-01 10:47 | 46.55503 | 11.05469 | 31412 ft | 452 kts | 359° |
| 2026-05-01 10:47 | 46.58631 | 11.05246 | 31258 ft | 449 kts | 359° |
| 2026-05-01 10:47 | 46.61734 | 11.05023 | 30723 ft | 446 kts | 360° |
| 2026-05-01 10:48 | 46.64829 | 11.04799 | 30408 ft | 443 kts | 360° |
| 2026-05-01 10:48 | 46.71002 | 11.04351 | 30340 ft | 445 kts | 0° |
| 2026-05-01 10:49 | 46.77200 | 11.03900 | 30335 ft | 445 kts | 0° |
| 2026-05-01 10:49 | 46.83373 | 11.02977 | 30338 ft | 447 kts | 356° |
| 2026-05-01 10:50 | 46.89512 | 11.01808 | 30338 ft | 447 kts | 356° |
| 2026-05-01 10:50 | 46.95618 | 11.01163 | 30342 ft | 443 kts | 5° |
| 2026-05-01 10:51 | 47.01724 | 11.02002 | 30328 ft | 438 kts | 9° |
| 2026-05-01 10:51 | 47.07793 | 11.02895 | 30335 ft | 441 kts | 9° |
| 2026-05-01 10:52 | 47.13871 | 11.03801 | 30341 ft | 439 kts | 9° |
| 2026-05-01 10:52 | 47.19912 | 11.04718 | 30340 ft | 438 kts | 10° |
| 2026-05-01 10:53 | 47.25953 | 11.05637 | 30342 ft | 437 kts | 10° |
| 2026-05-01 10:53 | 47.31521 | 11.06487 | 30340 ft | 437 kts | 10° |
| 2026-05-01 10:54 | 47.37572 | 11.07417 | 30330 ft | 438 kts | 10° |
| 2026-05-01 10:54 | 47.43628 | 11.08350 | 30336 ft | 436 kts | 11° |
| 2026-05-01 10:54 | 47.46633 | 11.08811 | 30069 ft | 431 kts | 11° |
| 2026-05-01 10:55 | 47.49607 | 11.09268 | 29363 ft | 428 kts | 11° |
| 2026-05-01 10:55 | 47.52543 | 11.09738 | 28475 ft | 422 kts | 12° |
| 2026-05-01 10:55 | 47.55387 | 11.10603 | 27574 ft | 413 kts | 19° |
| 2026-05-01 10:55 | 47.58086 | 11.11979 | 26654 ft | 406 kts | 25° |
| 2026-05-01 10:56 | 47.60607 | 11.13797 | 25811 ft | 400 kts | 31° |
| 2026-05-01 10:56 | 47.62988 | 11.15886 | 24982 ft | 397 kts | 32° |
| 2026-05-01 10:56 | 47.65361 | 11.17941 | 24217 ft | 394 kts | 31° |
| 2026-05-01 10:56 | 47.67721 | 11.19974 | 23378 ft | 390 kts | 31° |
| 2026-05-01 10:57 | 47.70038 | 11.21974 | 22527 ft | 387 kts | 31° |
| 2026-05-01 10:57 | 47.72381 | 11.23996 | 21694 ft | 383 kts | 30° |
| 2026-05-01 10:57 | 47.74778 | 11.25716 | 20864 ft | 381 kts | 24° |
| 2026-05-01 10:57 | 47.77260 | 11.27082 | 20023 ft | 379 kts | 21° |
| 2026-05-01 10:58 | 47.79725 | 11.28438 | 19332 ft | 376 kts | 22° |
| 2026-05-01 10:58 | 47.82164 | 11.29800 | 18936 ft | 375 kts | 22° |
| 2026-05-01 10:58 | 47.84617 | 11.31173 | 18693 ft | 376 kts | 22° |
| 2026-05-01 10:58 | 47.87080 | 11.32487 | 18150 ft | 377 kts | 18° |
| 2026-05-01 10:59 | 47.89635 | 11.33369 | 17388 ft | 375 kts | 11° |
| 2026-05-01 10:59 | 47.92215 | 11.33761 | 16672 ft | 371 kts | 5° |
| 2026-05-01 10:59 | 47.94754 | 11.33942 | 15962 ft | 369 kts | 5° |
| 2026-05-01 10:59 | 47.97300 | 11.34159 | 15250 ft | 365 kts | 5° |
| 2026-05-01 11:00 | 47.99822 | 11.34383 | 14513 ft | 362 kts | 6° |
| 2026-05-01 11:00 | 48.02326 | 11.34605 | 13757 ft | 360 kts | 5° |
| 2026-05-01 11:00 | 48.04802 | 11.34941 | 13119 ft | 354 kts | 14° |
| 2026-05-01 11:00 | 48.07061 | 11.36301 | 12798 ft | 350 kts | 33° |
| 2026-05-01 11:01 | 48.08849 | 11.38737 | 12681 ft | 349 kts | 51° |
| 2026-05-01 11:01 | 48.10275 | 11.41686 | 12608 ft | 350 kts | 55° |
| 2026-05-01 11:01 | 48.11488 | 11.44833 | 12542 ft | 351 kts | 65° |
| 2026-05-01 11:01 | 48.12226 | 11.48322 | 12460 ft | 352 kts | 77° |
| 2026-05-01 11:02 | 48.12517 | 11.51955 | 12411 ft | 353 kts | 83° |
| 2026-05-01 11:02 | 48.12770 | 11.55621 | 12323 ft | 352 kts | 82° |
| 2026-05-01 11:02 | 48.13054 | 11.59248 | 12256 ft | 351 kts | 81° |
| 2026-05-01 11:02 | 48.13343 | 11.62826 | 12130 ft | 351 kts | 81° |
| 2026-05-01 11:03 | 48.13632 | 11.66437 | 11982 ft | 349 kts | 81° |
| 2026-05-01 11:03 | 48.13919 | 11.70056 | 11835 ft | 349 kts | 81° |
| 2026-05-01 11:03 | 48.14203 | 11.73669 | 11691 ft | 349 kts | 82° |
| 2026-05-01 11:03 | 48.14483 | 11.77276 | 11537 ft | 348 kts | 82° |
| 2026-05-01 11:04 | 48.14761 | 11.80870 | 11399 ft | 348 kts | 82° |
| 2026-05-01 11:04 | 48.15036 | 11.84471 | 11269 ft | 347 kts | 82° |
| 2026-05-01 11:04 | 48.15310 | 11.88068 | 11144 ft | 346 kts | 82° |
| 2026-05-01 11:04 | 48.15582 | 11.91641 | 11026 ft | 346 kts | 82° |
| 2026-05-01 11:05 | 48.15849 | 11.95182 | 10888 ft | 344 kts | 82° |
| 2026-05-01 11:05 | 48.16119 | 11.98750 | 10740 ft | 344 kts | 82° |
| 2026-05-01 11:05 | 48.16569 | 12.02248 | 10560 ft | 341 kts | 69° |
| 2026-05-01 11:05 | 48.17759 | 12.05282 | 10378 ft | 339 kts | 48° |
| 2026-05-01 11:06 | 48.19611 | 12.07446 | 10248 ft | 339 kts | 28° |
| 2026-05-01 11:06 | 48.21832 | 12.08418 | 10122 ft | 330 kts | 7° |
| 2026-05-01 11:06 | 48.24067 | 12.08064 | 9969 ft | 319 kts | 345° |
| 2026-05-01 11:07 | 48.27236 | 12.03935 | 9638 ft | 302 kts | 297° |
| 2026-05-01 11:07 | 48.27681 | 12.00903 | 9521 ft | 301 kts | 271° |
| 2026-05-01 11:07 | 48.27529 | 11.98822 | 9493 ft | 302 kts | 258° |
| 2026-05-01 11:07 | 48.26930 | 11.94737 | 9408 ft | 303 kts | 261° |
| 2026-05-01 11:08 | 48.26708 | 11.92623 | 9348 ft | 303 kts | 263° |
| 2026-05-01 11:08 | 48.26443 | 11.89494 | 9243 ft | 300 kts | 264° |
| 2026-05-01 11:08 | 48.25986 | 11.83407 | 8860 ft | 288 kts | 264° |
| 2026-05-01 11:09 | 48.25761 | 11.80414 | 8464 ft | 287 kts | 264° |
| 2026-05-01 11:09 | 48.25538 | 11.77451 | 8063 ft | 286 kts | 264° |
| 2026-05-01 11:09 | 48.25311 | 11.74489 | 7699 ft | 284 kts | 263° |
| 2026-05-01 11:10 | 48.24860 | 11.68667 | 6951 ft | 282 kts | 263° |
| 2026-05-01 11:10 | 48.24632 | 11.65745 | 6540 ft | 282 kts | 263° |
| 2026-05-01 11:10 | 48.24403 | 11.62836 | 6224 ft | 280 kts | 262° |
| 2026-05-01 11:10 | 48.24179 | 11.59961 | 5884 ft | 278 kts | 262° |
| 2026-05-01 11:11 | 48.23951 | 11.57072 | 5486 ft | 279 kts | 262° |
| 2026-05-01 11:11 | 48.23722 | 11.54184 | 5249 ft | 277 kts | 262° |
| 2026-05-01 11:11 | 48.23499 | 11.51353 | 5026 ft | 273 kts | 262° |
| 2026-05-01 11:11 | 48.23277 | 11.48510 | 4977 ft | 275 kts | 264° |
| 2026-05-01 11:12 | 48.23431 | 11.45693 | 4970 ft | 265 kts | 290° |
| 2026-05-01 11:12 | 48.24365 | 11.43427 | 4980 ft | 251 kts | 319° |
| 2026-05-01 11:12 | 48.25806 | 11.42093 | 4977 ft | 239 kts | 346° |
| 2026-05-01 11:12 | 48.27361 | 11.41794 | 4986 ft | 212 kts | 9° |
| 2026-05-01 11:13 | 48.28706 | 11.42312 | 4980 ft | 200 kts | 30° |
| 2026-05-01 11:13 | 48.29850 | 11.43503 | 4978 ft | 199 kts | 49° |
| 2026-05-01 11:13 | 48.30660 | 11.45161 | 5009 ft | 197 kts | 62° |
| 2026-05-01 11:13 | 48.31375 | 11.46895 | 4993 ft | 189 kts | 64° |
| 2026-05-01 11:14 | 48.31864 | 11.48619 | 4997 ft | 174 kts | 76° |
| 2026-05-01 11:14 | 48.32127 | 11.50380 | 4874 ft | 173 kts | 81° |
| 2026-05-01 11:14 | 48.32298 | 11.52162 | 4608 ft | 171 kts | 85° |
| 2026-05-01 11:14 | 48.32401 | 11.53934 | 4370 ft | 170 kts | 84° |
| 2026-05-01 11:15 | 48.32565 | 11.55597 | 4138 ft | 148 kts | 84° |
| 2026-05-01 11:15 | 48.32655 | 11.57012 | 3966 ft | 128 kts | 84° |
| 2026-05-01 11:15 | 48.32771 | 11.58311 | 3808 ft | 124 kts | 83° |
| 2026-05-01 11:15 | 48.32869 | 11.59583 | 3627 ft | 120 kts | 84° |
| 2026-05-01 11:16 | 48.32973 | 11.60798 | 3459 ft | 116 kts | 82° |
| 2026-05-01 11:16 | 48.33075 | 11.62024 | 3294 ft | 117 kts | 84° |
| 2026-05-01 11:16 | 48.33153 | 11.63233 | 3135 ft | 114 kts | 84° |
| 2026-05-01 11:16 | 48.33237 | 11.64433 | 2988 ft | 116 kts | 83° |
| 2026-05-01 11:17 | 48.33342 | 11.65638 | 2833 ft | 117 kts | 84° |
| 2026-05-01 11:17 | 48.33429 | 11.66862 | 2650 ft | 116 kts | 84° |
| 2026-05-01 11:17 | 48.33526 | 11.68078 | 2488 ft | 118 kts | 83° |
| 2026-05-01 11:17 | 48.33608 | 11.69310 | 2319 ft | 119 kts | 84° |
| 2026-05-01 11:18 | 48.33717 | 11.70530 | 2148 ft | 120 kts | 82° |
| 2026-05-01 11:18 | 48.33805 | 11.71788 | 1981 ft | 119 kts | 85° |
| 2026-05-01 11:18 | 48.33898 | 11.73025 | 1800 ft | 121 kts | 83° |
| 2026-05-01 11:18 | 48.33994 | 11.74261 | 1650 ft | 118 kts | 81° |
| 2026-05-01 11:19 | 48.34103 | 11.75482 | 1524 ft | 116 kts | 83° |
| 2026-05-01 11:19 | 48.34179 | 11.76498 | 1482 ft | 75 kts | 83° |
| 2026-05-01 11:19 | 48.34223 | 11.77120 | 1473 ft | 47 kts | 84° |
| 2026-05-01 11:19 | 48.34255 | 11.77529 | 1480 ft | 37 kts | 83° |
| 2026-05-01 11:20 | 48.34285 | 11.77911 | 1484 ft | 32 kts | 83° |
| 2026-05-01 11:20 | 48.34317 | 11.78182 | 1482 ft | 17 kts | 71° |
| 2026-05-01 11:20 | 48.34367 | 11.78329 | 1478 ft | 15 kts | 56° |
| 2026-05-01 11:20 | 48.34425 | 11.78456 | 1467 ft | 15 kts | 55° |
| 2026-05-01 11:21 | 48.34487 | 11.78589 | 1465 ft | 16 kts | 54° |
| 2026-05-01 11:21 | 48.34554 | 11.78728 | 1467 ft | 16 kts | 52° |
| 2026-05-01 11:21 | 48.34618 | 11.78860 | 1467 ft | 15 kts | 66° |
| 2026-05-01 11:21 | 48.34640 | 11.79013 | 1469 ft | 14 kts | 84° |
| 2026-05-01 11:22 | 48.34650 | 11.79156 | 1468 ft | 14 kts | 84° |
| 2026-05-01 11:22 | 48.34661 | 11.79309 | 1476 ft | 15 kts | 83° |
| 2026-05-01 11:22 | 48.34675 | 11.79471 | 1476 ft | 16 kts | 83° |
| 2026-05-01 11:22 | 48.34689 | 11.79630 | 1473 ft | 12 kts | 79° |
| 2026-05-01 11:23 | 48.34736 | 11.79710 | 1474 ft | 11 kts | 10° |
| 2026-05-01 11:23 | 48.34798 | 11.79704 | 1472 ft | 8 kts | 351° |
| 2026-05-01 11:23 | 48.34867 | 11.79692 | 1475 ft | 10 kts | 353° |
| 2026-05-01 11:23 | 48.34907 | 11.79684 | 1467 ft | 1 kts | 353° |
| 2026-05-01 11:24 | 48.34911 | 11.79684 | 1468 ft | 0 kts | 353° |
| 2026-05-01 11:25 | 48.34912 | 11.79683 | 1474 ft | 2 kts | 353° |
| 2026-05-01 11:25 | 48.34967 | 11.79674 | 1469 ft | 12 kts | 353° |
| 2026-05-01 11:26 | 48.35063 | 11.79658 | 1466 ft | 14 kts | 354° |
| 2026-05-01 11:26 | 48.35243 | 11.79628 | 1470 ft | 12 kts | 352° |
| 2026-05-01 11:26 | 48.35320 | 11.79613 | 1469 ft | 12 kts | 352° |
| 2026-05-01 11:27 | 48.35378 | 11.79602 | 1466 ft | 8 kts | 353° |
| 2026-05-01 11:27 | 48.35446 | 11.79589 | 1470 ft | 10 kts | 353° |
| 2026-05-01 11:27 | 48.35489 | 11.79599 | 1469 ft | 4 kts | 41° |
| 2026-05-01 11:27 | 48.35508 | 11.79627 | 1464 ft | 4 kts | 45° |
| 2026-05-01 11:28 | 48.35527 | 11.79664 | 1464 ft | 2 kts | 74° |
| 2026-05-01 11:28 | 48.35528 | 11.79676 | 1466 ft | 1 kts | 84° |
| 2026-05-01 11:28 | 48.35529 | 11.79691 | 1465 ft | 2 kts | 84° |
| 2026-05-01 11:29 | 48.35530 | 11.79709 | 1466 ft | 0 kts | 84° |